Ship Status Report: callsign OS8154

sailwx.info

Track history (hours):
 
Tides and Currents Weather Stations Pressure Air Temp Water Temp Dewpoint Dewpoint Depression Visibility Wind Speed Wind Dir Waves Ship Positions

Callsign OS8154 (name unknown)

Last reported at 2015-Aug-28 21:00 UTC. Time now 2015-Aug-30 18:05 UTC.
Position N 49°00' W 064°24'.

Barometer 1012.1 mb
Air temperature 18.3 ° C

Date/timePositionNaut miles runAvg speedWind from/ knotsBaromVisibWave heightAir tempDewpointWater temp
2015-Aug-28 21:00N 49°00' W 064°24'0 0.0 1012.1 18.3
2015-Aug-28 20:00N 49°00' W 064°24'0 0.0 1012.2 17.3
2015-Aug-28 17:00N 49°00' W 064°24'0 0.0 1012.4 17.5
2015-Aug-28 16:00N 49°00' W 064°24'0 0.0 1012.6 17.3
2015-Aug-28 10:00N 49°00' W 064°24'0 0.0 1010.0 17.0
2015-Aug-28 07:00N 49°00' W 064°24'0 0.0 1008.1 17.8
2015-Aug-28 06:00N 49°00' W 064°24'0 0.0 1008.1 16.5
2015-Aug-28 03:00N 49°00' W 064°24'0 0.0 1008.5 15.3
2015-Aug-28 00:00N 49°00' W 064°24'0 0.0 1009.4 15.3
2015-Aug-27 20:00N 49°00' W 064°24'0 0.0 1009.1 17.3
2015-Aug-27 17:00N 49°00' W 064°24'0 0.0 1009.6 17.0
2015-Aug-27 16:00N 49°00' W 064°24'0 0.0 1009.8 20.3
2015-Aug-27 12:00N 49°00' W 064°24'0 0.0 1011.0 20.0
2015-Aug-27 08:00N 49°00' W 064°24'0 0.0 1011.4 19.0
2015-Aug-26 17:00N 49°00' W 064°24'0 0.0 1015.6 21.5
2015-Aug-26 08:00N 49°00' W 064°24'0 0.0 1016.4 19.8
2015-Aug-26 05:00N 49°00' W 064°24'0 0.0 1016.5 19.3
2015-Aug-26 02:00N 49°00' W 064°24'0 0.0 1016.7 18.0
2015-Aug-26 01:00N 49°00' W 064°24'0 0.0 1016.5 18.3
2015-Aug-26 00:00N 49°00' W 064°24'4 3.9 1016.4 18.8
2015-Aug-25 23:00N 49°00' W 064°18'28 9.2 1016.3 18.5
2015-Aug-25 20:00N 49°00' W 063°36'79 8.8 1016.7 20.3
2015-Aug-25 11:00N 49°06' W 061°36'17 8.4 1015.3 18.5
2015-Aug-25 09:00N 49°18' W 061°18'56 9.3 1014.5 17.5
2015-Aug-25 03:00N 49°54' W 060°12'13 6.5 1014.9 18.0
2015-Aug-25 01:00N 50°00' W 059°54'10 9.8 1015.5 17.3
2015-Aug-25 00:00N 50°06' W 059°42'26 8.8 1015.7 17.0
2015-Aug-24 21:00N 50°24' W 059°12'17 8.3 1015.4 19.3
2015-Aug-24 19:00N 50°36' W 058°54'42 8.3 1016.3 19.8
2015-Aug-24 14:00N 51°00' W 058°00'26 8.7 1017.7 16.3
2015-Aug-24 11:00N 51°18' W 057°30'29 4.8 1017.5 15.8
2015-Aug-24 05:00N 51°30' W 056°48'19 3.8 1017.2 13.8
2015-Aug-24 00:00N 51°42' W 056°24'0 0.0 1017.3 16.5
2015-Aug-23 23:00N 51°42' W 056°24'0 0.0 1017.1 14.0
2015-Aug-23 20:00N 51°42' W 056°24'0 0.0 1017.2 11.8
2015-Aug-23 19:00N 51°42' W 056°24'0 0.0 1016.9 13.3
2015-Aug-23 17:00N 51°42' W 056°24'42 7.0 1017.3 11.3
2015-Aug-23 11:00N 52°12' W 055°36'0 0.0 1017.2 12.8
2015-Aug-23 01:00N 52°12' W 055°36'0 0.0 1016.5 11.3
2015-Aug-22 21:00N 52°12' W 055°36'0 0.0 1012.0 13.5
2015-Aug-22 20:00N 52°12' W 055°36'0 0.0 1011.9 16.5
2015-Aug-22 12:00N 52°12' W 055°36'0 0.0 1013.3 12.8
2015-Aug-22 11:00N 52°12' W 055°36'0 0.0 1013.7 16.0
2015-Aug-22 08:00N 52°12' W 055°36'24 1.7 1014.2 21.5
2015-Aug-21 18:00N 52°36' W 055°42'4 0.6 1014.6 24.3
2015-Aug-21 12:00N 52°36' W 055°48'0 0.0 1017.0 19.0
2015-Aug-21 09:00N 52°36' W 055°48'0 0.0 1017.1 15.5
2015-Aug-21 08:00N 52°36' W 055°48'0 0.0 1017.1 15.8
2015-Aug-21 05:00N 52°36' W 055°48'0 0.0 1017.9 17.5
2015-Aug-21 00:00N 52°36' W 055°48'0 0.0 1019.3 18.5
2015-Aug-20 23:00N 52°36' W 055°48'0 0.0 1019.5 14.3
2015-Aug-20 20:00N 52°36' W 055°48'0 0.0 1021.5 9.8
2015-Aug-20 18:00N 52°36' W 055°48'0 0.0 1022.6 10.8
2015-Aug-20 15:00N 52°36' W 055°48'0 0.0 1023.7 13.0
2015-Aug-20 10:00N 52°36' W 055°48'0 0.0 1025.8 10.3
2015-Aug-20 05:00N 52°36' W 055°48'30 2.5 1025.1 12.0
2015-Aug-19 17:00N 53°06' W 055°42'37 6.2 1023.0 9.5
2015-Aug-19 11:00N 53°36' W 056°18'0 0.0 1023.0 10.5
2015-Aug-19 10:00N 53°36' W 056°18'0 0.0 1022.3 8.5
2015-Aug-19 07:00N 53°36' W 056°18'0 0.0 1020.8 6.8
2015-Aug-19 06:00N 53°36' W 056°18'0 0.0 1020.6 8.0
2015-Aug-18 23:00N 53°36' W 056°18'   1017.7 9.0
Track history (hours):
 
Tides and Currents Weather Stations Pressure Air Temp Water Temp Dewpoint Dewpoint Depression Visibility Wind Speed Wind Dir Waves Ship Positions

Callsign OS8154 (name unknown)

Last reported at 2015-Aug-28 21:00 UTC. Time now 2015-Aug-30 18:05 UTC.
Position N 49°00' W 064°24'.

Barometer 1012.1 mb
Air temperature 18.3 ° C

Date/timePositionNaut miles runAvg speedWind from/ knotsBaromVisibWave heightAir tempDewpointWater temp
2015-Aug-28 21:00N 49°00' W 064°24'0 0.0 1012.1 18.3
2015-Aug-28 20:00N 49°00' W 064°24'0 0.0 1012.2 17.3
2015-Aug-28 17:00N 49°00' W 064°24'0 0.0 1012.4 17.5
2015-Aug-28 16:00N 49°00' W 064°24'0 0.0 1012.6 17.3
2015-Aug-28 10:00N 49°00' W 064°24'0 0.0 1010.0 17.0
2015-Aug-28 07:00N 49°00' W 064°24'0 0.0 1008.1 17.8
2015-Aug-28 06:00N 49°00' W 064°24'0 0.0 1008.1 16.5
2015-Aug-28 03:00N 49°00' W 064°24'0 0.0 1008.5 15.3
2015-Aug-28 00:00N 49°00' W 064°24'0 0.0 1009.4 15.3
2015-Aug-27 20:00N 49°00' W 064°24'0 0.0 1009.1 17.3
2015-Aug-27 17:00N 49°00' W 064°24'0 0.0 1009.6 17.0
2015-Aug-27 16:00N 49°00' W 064°24'0 0.0 1009.8 20.3
2015-Aug-27 12:00N 49°00' W 064°24'0 0.0 1011.0 20.0
2015-Aug-27 08:00N 49°00' W 064°24'0 0.0 1011.4 19.0
2015-Aug-26 17:00N 49°00' W 064°24'0 0.0 1015.6 21.5
2015-Aug-26 08:00N 49°00' W 064°24'0 0.0 1016.4 19.8
2015-Aug-26 05:00N 49°00' W 064°24'0 0.0 1016.5 19.3
2015-Aug-26 02:00N 49°00' W 064°24'0 0.0 1016.7 18.0
2015-Aug-26 01:00N 49°00' W 064°24'0 0.0 1016.5 18.3
2015-Aug-26 00:00N 49°00' W 064°24'4 3.9 1016.4 18.8
2015-Aug-25 23:00N 49°00' W 064°18'28 9.2 1016.3 18.5
2015-Aug-25 20:00N 49°00' W 063°36'79 8.8 1016.7 20.3
2015-Aug-25 11:00N 49°06' W 061°36'17 8.4 1015.3 18.5
2015-Aug-25 09:00N 49°18' W 061°18'56 9.3 1014.5 17.5
2015-Aug-25 03:00N 49°54' W 060°12'13 6.5 1014.9 18.0
2015-Aug-25 01:00N 50°00' W 059°54'10 9.8 1015.5 17.3
2015-Aug-25 00:00N 50°06' W 059°42'26 8.8 1015.7 17.0
2015-Aug-24 21:00N 50°24' W 059°12'17 8.3 1015.4 19.3
2015-Aug-24 19:00N 50°36' W 058°54'42 8.3 1016.3 19.8
2015-Aug-24 14:00N 51°00' W 058°00'26 8.7 1017.7 16.3
2015-Aug-24 11:00N 51°18' W 057°30'29 4.8 1017.5 15.8
2015-Aug-24 05:00N 51°30' W 056°48'19 3.8 1017.2 13.8
2015-Aug-24 00:00N 51°42' W 056°24'0 0.0 1017.3 16.5
2015-Aug-23 23:00N 51°42' W 056°24'0 0.0 1017.1 14.0
2015-Aug-23 20:00N 51°42' W 056°24'0 0.0 1017.2 11.8
2015-Aug-23 19:00N 51°42' W 056°24'0 0.0 1016.9 13.3
2015-Aug-23 17:00N 51°42' W 056°24'42 7.0 1017.3 11.3
2015-Aug-23 11:00N 52°12' W 055°36'0 0.0 1017.2 12.8
2015-Aug-23 01:00N 52°12' W 055°36'0 0.0 1016.5 11.3
2015-Aug-22 21:00N 52°12' W 055°36'0 0.0 1012.0 13.5
2015-Aug-22 20:00N 52°12' W 055°36'0 0.0 1011.9 16.5
2015-Aug-22 12:00N 52°12' W 055°36'0 0.0 1013.3 12.8
2015-Aug-22 11:00N 52°12' W 055°36'0 0.0 1013.7 16.0
2015-Aug-22 08:00N 52°12' W 055°36'24 1.7 1014.2 21.5
2015-Aug-21 18:00N 52°36' W 055°42'4 0.6 1014.6 24.3
2015-Aug-21 12:00N 52°36' W 055°48'0 0.0 1017.0 19.0
2015-Aug-21 09:00N 52°36' W 055°48'0 0.0 1017.1 15.5
2015-Aug-21 08:00N 52°36' W 055°48'0 0.0 1017.1 15.8
2015-Aug-21 05:00N 52°36' W 055°48'0 0.0 1017.9 17.5
2015-Aug-21 00:00N 52°36' W 055°48'0 0.0 1019.3 18.5
2015-Aug-20 23:00N 52°36' W 055°48'0 0.0 1019.5 14.3
2015-Aug-20 20:00N 52°36' W 055°48'0 0.0 1021.5 9.8
2015-Aug-20 18:00N 52°36' W 055°48'0 0.0 1022.6 10.8
2015-Aug-20 15:00N 52°36' W 055°48'0 0.0 1023.7 13.0
2015-Aug-20 10:00N 52°36' W 055°48'0 0.0 1025.8 10.3
2015-Aug-20 05:00N 52°36' W 055°48'30 2.5 1025.1 12.0
2015-Aug-19 17:00N 53°06' W 055°42'37 6.2 1023.0 9.5
2015-Aug-19 11:00N 53°36' W 056°18'0 0.0 1023.0 10.5
2015-Aug-19 10:00N 53°36' W 056°18'0 0.0 1022.3 8.5
2015-Aug-19 07:00N 53°36' W 056°18'0 0.0 1020.8 6.8
2015-Aug-19 06:00N 53°36' W 056°18'0 0.0 1020.6 8.0
2015-Aug-18 23:00N 53°36' W 056°18'   1017.7 9.0

Dump ship's entire track history